Terminal Aerodrome Forecast
Issued by NWS Shreveport, LA

Home | Current Version | Previous Version | Text Only | Print | Product List | Glossary On
Versions: 1 2 3 4 5 6 7 8 9 10 11 12 13 14 15 16
082
FTUS44 KSHV 270229 AAA
TAFMLU
TAF AMD
KMLU 270229Z 2702/2724 18007KT P6SM BKN050
      TEMPO 2703/2704 18020G40KT
     FM270400 17006KT P6SM SCT030 OVC080
      TEMPO 2711/2715 BKN015
     FM271800 17012G20KT P6SM VCTS BKN040CB=

USA.gov is the U.S. government's official web portal to all federal, state and local government web resources and services.